Time;durP1;ratioP1;P1;durP2;ratioP2;P2;SDS_P1;SDS_P2;PMS_P1;PMS_P2;Temp;Humidity;BMP_temperature;BMP_pressure;BME280_temperature;BME280_humidity;BME280_pressure;Samples;Min_cycle;Max_cycle;Signal;HPM_P1;HPM_P2
2022/03/26 00:00:32;;;;;;;;;;;4.80;99.90;;;;;;4097209;29;20389;-51
2022/03/26 00:02:34;;;;;;;;;;;4.80;99.90;;;;;;4082458;29;20391;-50
2022/03/26 00:04:36;;;;;;;;;;;4.90;99.90;;;;;;4096589;29;19981;-52
2022/03/26 00:06:38;;;;;;;;;;;4.90;99.90;;;;;;4096891;29;19926;-51
2022/03/26 00:08:40;;;;;;;;;;;4.80;99.90;;;;;;4097873;28;19942;-48
2022/03/26 00:10:42;;;;;;;;;;;4.90;99.90;;;;;;4096398;29;19934;-51
2022/03/26 00:12:44;;;;;;;;;;;5.00;99.90;;;;;;4100054;28;20392;-51
2022/03/26 00:14:46;;;;;;;;;;;5.00;99.20;;;;;;4096319;29;19993;-52
2022/03/26 00:16:48;;;;;;;;;;;4.90;99.60;;;;;;4096887;29;20379;-51
2022/03/26 00:18:50;;;;;;;;;;;4.90;99.90;;;;;;4108496;28;20302;-50
2022/03/26 00:20:52;;;;;;;;;;;4.70;99.90;;;;;;4097481;29;20017;-51
2022/03/26 00:22:53;;;;;;;;;;;4.70;99.90;;;;;;4096824;29;19985;-49
2022/03/26 00:24:55;;;;;;;;;;;4.60;99.90;;;;;;4096578;29;19969;-51
2022/03/26 00:26:57;;;;;;;;;;;4.60;99.90;;;;;;4096740;29;20441;-51
2022/03/26 00:28:59;;;;;;;;;;;4.60;99.90;;;;;;4096184;29;19933;-50
2022/03/26 00:31:01;;;;;;;;;;;4.60;99.90;;;;;;4080936;29;20036;-52
2022/03/26 00:33:04;;;;;;;;;;;4.60;99.90;;;;;;4096675;29;19995;-51
2022/03/26 00:35:09;;;;;;;;;;;4.60;99.90;;;;;;4096378;29;19927;-51
2022/03/26 00:37:11;;;;;;;;;;;4.70;99.90;;;;;;4097911;28;19931;-49
2022/03/26 00:39:13;;;;;;;;;;;4.70;99.90;;;;;;4096481;29;19930;-50
2022/03/26 00:41:15;;;;;;;;;;;4.60;99.90;;;;;;4096495;29;19927;-50
2022/03/26 00:43:17;;;;;;;;;;;4.60;99.90;;;;;;4097528;28;20033;-51
2022/03/26 00:45:19;;;;;;;;;;;4.40;99.90;;;;;;4103424;28;19930;-51
2022/03/26 00:47:21;;;;;;;;;;;4.20;99.90;;;;;;4096702;29;19985;-52
2022/03/26 00:49:23;;;;;;;;;;;4.20;99.90;;;;;;4096420;29;19977;-51
2022/03/26 00:51:25;;;;;;;;;;;4.40;99.90;;;;;;4104416;28;19983;-50
2022/03/26 00:53:27;;;;;;;;;;;4.20;99.90;;;;;;4096054;29;20028;-51
2022/03/26 00:55:29;;;;;;;;;;;3.90;99.90;;;;;;4097546;29;20417;-50
2022/03/26 00:57:31;;;;;;;;;;;3.70;99.90;;;;;;4096567;29;19935;-50
2022/03/26 00:59:33;;;;;;;;;;;3.60;99.90;;;;;;4095907;29;20398;-51
2022/03/26 01:01:35;;;;;;;;;;;3.70;99.90;;;;;;4096245;29;19937;-52
2022/03/26 01:03:37;;;;;;;;;;;3.70;99.90;;;;;;4095861;29;19927;-51
2022/03/26 01:05:39;;;;;;;;;;;3.70;99.90;;;;;;4096052;29;19977;-51
2022/03/26 01:07:40;;;;;;;;;;;3.70;99.90;;;;;;4097996;28;20313;-51
2022/03/26 01:09:42;;;;;;;;;;;3.60;99.90;;;;;;4109050;28;19948;-52
2022/03/26 01:11:44;;;;;;;;;;;3.60;99.90;;;;;;4096711;29;20021;-51
2022/03/26 01:13:48;;;;;;;;;;;3.70;99.90;;;;;;4096486;29;19938;-51
2022/03/26 01:15:49;;;;;;;;;;;3.70;99.90;;;;;;4095754;29;19934;-52
2022/03/26 01:17:53;;;;;;;;;;;3.70;99.90;;;;;;4101167;28;19937;-51
2022/03/26 01:19:55;;;;;;;;;;;3.80;99.90;;;;;;4100687;28;19957;-50
2022/03/26 01:21:57;;;;;;;;;;;3.80;99.90;;;;;;4096187;29;19927;-50
2022/03/26 01:23:59;;;;;;;;;;;3.70;99.90;;;;;;4095625;29;20450;-51
2022/03/26 01:26:02;;;;;;;;;;;3.60;99.90;;;;;;4096486;29;20033;-51
2022/03/26 01:28:04;;;;;;;;;;;3.50;99.90;;;;;;4095528;29;19958;-49
2022/03/26 01:30:06;;;;;;;;;;;3.60;99.90;;;;;;4096647;29;19930;-52
2022/03/26 01:32:08;;;;;;;;;;;3.70;99.90;;;;;;4095973;29;19930;-49
2022/03/26 01:34:10;;;;;;;;;;;3.70;99.90;;;;;;4095750;29;20461;-51
2022/03/26 01:36:12;;;;;;;;;;;3.70;99.90;;;;;;4095672;29;19926;-51
2022/03/26 01:38:14;;;;;;;;;;;3.60;99.90;;;;;;4095362;29;20032;-52
2022/03/26 01:40:16;;;;;;;;;;;3.50;99.90;;;;;;4095505;29;19926;-51
2022/03/26 01:42:18;;;;;;;;;;;3.30;99.90;;;;;;4095377;29;19970;-52
2022/03/26 01:44:20;;;;;;;;;;;3.10;99.90;;;;;;4101299;28;19930;-51
2022/03/26 01:46:22;;;;;;;;;;;3.00;99.90;;;;;;4095289;29;19934;-51
2022/03/26 01:48:24;;;;;;;;;;;2.90;99.90;;;;;;4096664;29;19934;-51
2022/03/26 01:50:27;;;;;;;;;;;2.90;99.90;;;;;;4102588;28;19965;-51
2022/03/26 01:52:29;;;;;;;;;;;2.90;99.90;;;;;;4097254;28;19991;-52
2022/03/26 01:54:31;;;;;;;;;;;3.00;99.90;;;;;;4095050;29;19965;-51
2022/03/26 01:56:34;;;;;;;;;;;2.90;99.90;;;;;;4095355;29;19930;-52
2022/03/26 01:58:36;;;;;;;;;;;3.00;99.90;;;;;;4092829;29;20008;-51
2022/03/26 02:00:38;;;;;;;;;;;3.10;99.90;;;;;;4095805;29;19973;-51
2022/03/26 02:02:43;;;;;;;;;;;3.20;99.90;;;;;;4095088;29;20224;-49
2022/03/26 02:04:45;;;;;;;;;;;3.10;99.90;;;;;;4099850;28;19926;-50
2022/03/26 02:06:48;;;;;;;;;;;3.20;99.90;;;;;;4080714;29;20025;-51
2022/03/26 02:08:49;;;;;;;;;;;3.10;99.90;;;;;;4108054;28;19926;-52
2022/03/26 02:10:51;;;;;;;;;;;3.10;99.90;;;;;;4097424;28;19934;-52
2022/03/26 02:12:53;;;;;;;;;;;3.00;99.90;;;;;;4095015;28;19930;-52
2022/03/26 02:14:56;;;;;;;;;;;2.90;99.90;;;;;;4094721;29;20021;-52
2022/03/26 02:16:58;;;;;;;;;;;2.70;99.90;;;;;;4094933;29;19930;-51
2022/03/26 02:19:00;;;;;;;;;;;2.90;99.90;;;;;;4104153;28;19937;-50
2022/03/26 02:21:02;;;;;;;;;;;2.90;99.90;;;;;;4095019;29;19953;-52
2022/03/26 02:23:04;;;;;;;;;;;2.90;99.90;;;;;;4096180;29;19926;-51
2022/03/26 02:25:07;;;;;;;;;;;2.80;99.90;;;;;;4096393;28;20028;-51
2022/03/26 02:27:09;;;;;;;;;;;2.80;99.90;;;;;;4094777;29;20413;-52
2022/03/26 02:29:12;;;;;;;;;;;2.70;99.90;;;;;;4095125;29;19930;-50
2022/03/26 02:31:14;;;;;;;;;;;2.80;99.90;;;;;;4094608;29;19962;-52
2022/03/26 02:33:16;;;;;;;;;;;2.90;99.90;;;;;;4094386;28;20450;-51
2022/03/26 02:35:21;;;;;;;;;;;2.90;99.90;;;;;;4095376;29;19934;-51
2022/03/26 02:37:23;;;;;;;;;;;2.80;99.90;;;;;;4094615;29;20025;-52
2022/03/26 02:39:26;;;;;;;;;;;2.70;99.90;;;;;;4094961;29;20456;-51
2022/03/26 02:41:28;;;;;;;;;;;2.70;99.90;;;;;;4095442;29;19931;-52
2022/03/26 02:43:30;;;;;;;;;;;2.80;99.90;;;;;;4098378;28;19965;-50
2022/03/26 02:45:32;;;;;;;;;;;2.70;99.90;;;;;;4095880;28;19978;-51
2022/03/26 02:47:34;;;;;;;;;;;2.70;99.90;;;;;;4078807;29;19927;-50
2022/03/26 02:49:36;;;;;;;;;;;2.70;99.90;;;;;;4095730;28;20388;-49
2022/03/26 02:51:38;;;;;;;;;;;2.60;99.90;;;;;;4101964;28;19926;-51
2022/03/26 02:53:39;;;;;;;;;;;2.60;99.90;;;;;;4094555;29;19926;-51
2022/03/26 02:55:41;;;;;;;;;;;2.50;99.90;;;;;;4094768;29;19930;-51
2022/03/26 02:57:46;;;;;;;;;;;2.40;99.90;;;;;;4094616;29;19970;-50
2022/03/26 02:59:49;;;;;;;;;;;2.40;99.90;;;;;;4096174;29;20384;-52
2022/03/26 03:01:52;;;;;;;;;;;2.50;99.90;;;;;;4106735;28;20307;-51
2022/03/26 03:03:54;;;;;;;;;;;2.70;99.90;;;;;;4097891;29;20313;-50
2022/03/26 03:05:56;;;;;;;;;;;2.80;99.90;;;;;;4098563;28;20021;-49
2022/03/26 03:07:58;;;;;;;;;;;2.70;99.90;;;;;;4101868;28;19965;-49
2022/03/26 03:09:59;;;;;;;;;;;2.60;99.90;;;;;;4098110;29;20005;-51
2022/03/26 03:12:01;;;;;;;;;;;2.50;99.90;;;;;;4097580;29;19934;-49
2022/03/26 03:14:04;;;;;;;;;;;2.40;99.90;;;;;;4097993;29;19927;-51
2022/03/26 03:16:06;;;;;;;;;;;2.50;99.90;;;;;;4097476;29;20298;-51
2022/03/26 03:18:08;;;;;;;;;;;2.40;99.90;;;;;;4099159;28;20294;-52
2022/03/26 03:20:10;;;;;;;;;;;2.50;99.90;;;;;;4097632;29;19926;-50
2022/03/26 03:22:12;;;;;;;;;;;2.60;99.90;;;;;;4097632;29;19992;-51
2022/03/26 03:24:14;;;;;;;;;;;2.60;99.90;;;;;;4097580;29;19953;-49
2022/03/26 03:26:16;;;;;;;;;;;2.60;99.90;;;;;;4097638;29;20025;-51
2022/03/26 03:28:18;;;;;;;;;;;2.50;99.90;;;;;;4097326;29;20422;-51
2022/03/26 03:30:20;;;;;;;;;;;2.40;99.90;;;;;;4097353;29;19934;-51
2022/03/26 03:32:21;;;;;;;;;;;2.40;99.90;;;;;;4097314;29;19941;-50
2022/03/26 03:34:23;;;;;;;;;;;2.30;99.90;;;;;;4097474;29;19933;-51
2022/03/26 03:36:25;;;;;;;;;;;2.20;99.90;;;;;;4097707;29;19934;-50
2022/03/26 03:38:27;;;;;;;;;;;2.20;99.90;;;;;;4096154;29;20445;-50
2022/03/26 03:40:29;;;;;;;;;;;2.10;99.90;;;;;;4096257;29;19981;-51
2022/03/26 03:42:31;;;;;;;;;;;2.20;99.90;;;;;;4096174;29;19927;-51
2022/03/26 03:44:33;;;;;;;;;;;2.30;99.90;;;;;;4099455;28;20008;-51
2022/03/26 03:46:35;;;;;;;;;;;2.30;99.90;;;;;;4096790;29;20381;-53
2022/03/26 03:48:37;;;;;;;;;;;2.10;99.90;;;;;;4096948;29;20274;-48
2022/03/26 03:50:39;;;;;;;;;;;2.10;99.90;;;;;;4104082;28;19962;-50
2022/03/26 03:52:41;;;;;;;;;;;2.10;99.90;;;;;;4097078;29;19970;-50
2022/03/26 03:54:43;;;;;;;;;;;2.00;99.90;;;;;;4097433;29;19981;-51
2022/03/26 03:56:45;;;;;;;;;;;2.00;99.90;;;;;;4099480;28;20440;-51
2022/03/26 03:58:47;;;;;;;;;;;2.00;99.90;;;;;;4101076;28;19970;-51
2022/03/26 04:00:49;;;;;;;;;;;2.00;99.90;;;;;;4096783;29;19981;-50
2022/03/26 04:02:52;;;;;;;;;;;1.90;99.90;;;;;;4096294;29;19931;-51
2022/03/26 04:04:54;;;;;;;;;;;2.00;99.90;;;;;;4097064;29;19930;-52
2022/03/26 04:06:56;;;;;;;;;;;1.90;99.90;;;;;;4096590;29;19927;-51
2022/03/26 04:08:58;;;;;;;;;;;2.00;99.90;;;;;;4106060;28;19926;-51
2022/03/26 04:11:00;;;;;;;;;;;1.90;99.90;;;;;;4098189;29;20009;-51
2022/03/26 04:13:03;;;;;;;;;;;1.90;99.90;;;;;;4095788;28;19935;-52
2022/03/26 04:15:05;;;;;;;;;;;1.90;99.90;;;;;;4088262;29;19933;-51
2022/03/26 04:17:07;;;;;;;;;;;1.80;99.90;;;;;;4096424;29;19927;-51
2022/03/26 04:19:10;;;;;;;;;;;1.70;99.90;;;;;;4101563;28;20584;-51
2022/03/26 04:21:13;;;;;;;;;;;1.70;99.90;;;;;;4096240;29;19997;-49
2022/03/26 04:23:15;;;;;;;;;;;1.60;99.90;;;;;;4096844;29;19930;-51
2022/03/26 04:25:17;;;;;;;;;;;1.60;99.90;;;;;;4096692;29;19951;-51
2022/03/26 04:27:19;;;;;;;;;;;1.50;99.90;;;;;;4097066;29;20457;-51
2022/03/26 04:29:21;;;;;;;;;;;1.60;99.90;;;;;;4097742;29;20323;-51
2022/03/26 04:31:23;;;;;;;;;;;1.50;99.90;;;;;;4096181;29;19934;-50
2022/03/26 04:33:25;;;;;;;;;;;1.50;99.90;;;;;;4096652;29;19977;-50
2022/03/26 04:35:27;;;;;;;;;;;1.70;99.90;;;;;;4096239;29;20029;-48
2022/03/26 04:37:29;;;;;;;;;;;1.70;99.90;;;;;;4096320;29;20592;-51
2022/03/26 04:39:31;;;;;;;;;;;1.70;99.90;;;;;;4096735;29;20013;-51
2022/03/26 04:41:33;;;;;;;;;;;1.60;99.90;;;;;;4096342;29;19969;-49
2022/03/26 04:43:35;;;;;;;;;;;1.60;99.90;;;;;;4081669;29;19927;-49
2022/03/26 04:45:37;;;;;;;;;;;1.60;99.90;;;;;;4097381;29;20013;-51
2022/03/26 04:47:39;;;;;;;;;;;1.60;99.90;;;;;;4096905;29;19980;-49
2022/03/26 04:49:41;;;;;;;;;;;1.70;99.90;;;;;;4097694;28;19931;-51
2022/03/26 04:51:43;;;;;;;;;;;1.60;99.90;;;;;;4096226;28;20053;-50
2022/03/26 04:53:45;;;;;;;;;;;1.50;99.90;;;;;;4097716;28;20452;-49
2022/03/26 04:55:47;;;;;;;;;;;1.50;99.90;;;;;;4096102;29;19930;-48
2022/03/26 04:57:49;;;;;;;;;;;1.50;99.90;;;;;;4090159;29;19970;-51
2022/03/26 04:59:51;;;;;;;;;;;1.50;99.90;;;;;;4084580;29;19926;-51
2022/03/26 05:01:53;;;;;;;;;;;1.50;99.90;;;;;;4096582;29;19935;-49
2022/03/26 05:03:55;;;;;;;;;;;1.40;99.90;;;;;;4097298;29;19958;-49
2022/03/26 05:05:57;;;;;;;;;;;1.40;99.90;;;;;;4095970;29;19941;-50
2022/03/26 05:07:59;;;;;;;;;;;1.40;99.90;;;;;;4102670;28;20389;-50
2022/03/26 05:10:01;;;;;;;;;;;1.30;99.90;;;;;;4099988;28;20477;-51
2022/03/26 05:12:03;;;;;;;;;;;1.30;99.90;;;;;;4095744;29;20550;-50
2022/03/26 05:14:05;;;;;;;;;;;1.30;99.90;;;;;;4095826;29;19979;-51
2022/03/26 05:16:07;;;;;;;;;;;1.30;99.90;;;;;;4095848;29;19931;-51
2022/03/26 05:18:09;;;;;;;;;;;1.30;99.90;;;;;;4100204;28;20445;-50
2022/03/26 05:20:12;;;;;;;;;;;1.30;99.90;;;;;;4096017;29;19949;-51
2022/03/26 05:22:14;;;;;;;;;;;1.20;99.90;;;;;;4097396;29;19949;-51
2022/03/26 05:24:16;;;;;;;;;;;1.20;99.90;;;;;;4094588;28;20351;-50
2022/03/26 05:26:21;;;;;;;;;;;1.10;99.90;;;;;;4092485;28;19976;-51
2022/03/26 05:28:23;;;;;;;;;;;1.10;99.90;;;;;;4103150;28;20349;-51
2022/03/26 05:30:24;;;;;;;;;;;1.10;99.90;;;;;;4096560;28;19992;-50
2022/03/26 05:32:26;;;;;;;;;;;1.10;99.90;;;;;;4073510;29;20502;-49
2022/03/26 05:34:28;;;;;;;;;;;1.20;99.90;;;;;;4083586;29;19997;-52
2022/03/26 05:36:30;;;;;;;;;;;1.30;99.90;;;;;;4094418;29;19981;-51
2022/03/26 05:38:32;;;;;;;;;;;1.40;99.90;;;;;;4097331;29;20279;-51
2022/03/26 05:40:35;;;;;;;;;;;1.40;99.90;;;;;;4089192;28;19934;-51
2022/03/26 05:42:37;;;;;;;;;;;1.40;99.90;;;;;;4096875;29;20025;-51
2022/03/26 05:44:39;;;;;;;;;;;1.50;99.90;;;;;;4095662;28;19926;-51
2022/03/26 05:46:42;;;;;;;;;;;1.50;99.90;;;;;;4095529;29;19980;-52
2022/03/26 05:48:45;;;;;;;;;;;1.50;99.90;;;;;;4095155;28;19938;-51
2022/03/26 05:50:47;;;;;;;;;;;1.60;99.90;;;;;;4099320;28;20465;-50
2022/03/26 05:52:49;;;;;;;;;;;1.60;99.90;;;;;;4095241;29;19931;-49
2022/03/26 05:54:51;;;;;;;;;;;1.70;99.90;;;;;;4094058;28;20445;-51
2022/03/26 05:56:53;;;;;;;;;;;1.70;99.90;;;;;;4096888;29;19926;-52
2022/03/26 05:58:55;;;;;;;;;;;1.70;99.90;;;;;;4095004;29;19930;-50
2022/03/26 06:00:58;;;;;;;;;;;1.70;99.90;;;;;;4095102;29;19977;-51
2022/03/26 06:03:00;;;;;;;;;;;1.70;99.90;;;;;;4094936;29;20310;-52
2022/03/26 06:05:03;;;;;;;;;;;1.70;99.90;;;;;;4095183;29;19980;-50
2022/03/26 06:07:05;;;;;;;;;;;1.70;99.90;;;;;;4095710;29;20025;-51
2022/03/26 06:09:07;;;;;;;;;;;1.70;99.90;;;;;;4105926;28;20028;-51
2022/03/26 06:11:09;;;;;;;;;;;1.70;99.90;;;;;;4094914;29;20428;-51
2022/03/26 06:13:11;;;;;;;;;;;1.80;99.90;;;;;;4095214;29;19949;-49
2022/03/26 06:15:13;;;;;;;;;;;1.90;99.90;;;;;;4095867;29;19930;-51
2022/03/26 06:17:35;;;;;;;;;;;1.90;99.90;;;;;;4105923;28;20021;-51
2022/03/26 06:19:38;;;;;;;;;;;1.90;99.90;;;;;;4089185;28;20274;-51
2022/03/26 06:21:40;;;;;;;;;;;2.10;99.90;;;;;;4094352;29;19931;-52
2022/03/26 06:23:42;;;;;;;;;;;2.00;99.90;;;;;;4094589;29;19950;-52
2022/03/26 06:25:44;;;;;;;;;;;2.10;99.90;;;;;;4094753;29;20494;-51
2022/03/26 06:27:49;;;;;;;;;;;2.20;99.90;;;;;;4094795;29;19966;-50
2022/03/26 06:29:51;;;;;;;;;;;2.20;99.90;;;;;;4094671;29;19981;-50
2022/03/26 06:31:53;;;;;;;;;;;2.40;99.90;;;;;;4094914;29;19973;-51
2022/03/26 06:33:55;;;;;;;;;;;2.60;99.90;;;;;;4095307;28;19932;-51
2022/03/26 06:35:57;;;;;;;;;;;2.60;99.90;;;;;;4095567;28;20038;-52
2022/03/26 06:37:59;;;;;;;;;;;2.70;99.90;;;;;;4095756;29;19934;-50
2022/03/26 06:40:01;;;;;;;;;;;2.80;99.90;;;;;;4094287;29;19938;-51
2022/03/26 06:42:04;;;;;;;;;;;3.00;99.90;;;;;;4094731;29;20444;-51
2022/03/26 06:44:09;;;;;;;;;;;3.10;99.90;;;;;;4094639;28;19954;-49
2022/03/26 06:46:12;;;;;;;;;;;3.30;99.90;;;;;;4093250;28;19982;-52
2022/03/26 06:48:14;;;;;;;;;;;3.40;99.90;;;;;;4092543;29;19942;-52
2022/03/26 06:50:16;;;;;;;;;;;3.30;99.90;;;;;;4100958;28;20488;-49
2022/03/26 06:52:18;;;;;;;;;;;3.40;99.90;;;;;;4095560;28;19937;-53
2022/03/26 06:54:20;;;;;;;;;;;3.60;99.90;;;;;;4094248;29;19930;-52
2022/03/26 06:56:22;;;;;;;;;;;3.60;99.90;;;;;;4095165;29;19957;-52
2022/03/26 06:58:24;;;;;;;;;;;3.80;99.90;;;;;;4094763;29;20059;-51
2022/03/26 07:00:26;;;;;;;;;;;3.90;99.90;;;;;;4094809;29;19930;-52
2022/03/26 07:02:28;;;;;;;;;;;4.10;99.90;;;;;;4094907;29;19930;-52
2022/03/26 07:04:30;;;;;;;;;;;4.20;99.90;;;;;;4094161;29;19958;-53
2022/03/26 07:06:32;;;;;;;;;;;4.20;99.90;;;;;;4094978;29;20310;-49
2022/03/26 07:08:34;;;;;;;;;;;4.40;99.90;;;;;;4096461;28;20462;-51
2022/03/26 07:10:37;;;;;;;;;;;4.50;99.90;;;;;;4091362;29;19930;-53
2022/03/26 07:12:39;;;;;;;;;;;4.50;99.90;;;;;;4091305;29;19926;-52
2022/03/26 07:14:41;;;;;;;;;;;4.50;99.90;;;;;;4094245;29;19930;-52
2022/03/26 07:16:44;;;;;;;;;;;4.60;99.90;;;;;;4090033;28;19981;-53
2022/03/26 07:18:46;;;;;;;;;;;4.70;99.90;;;;;;4082036;29;19927;-52
2022/03/26 07:20:47;;;;;;;;;;;4.90;99.90;;;;;;4087898;29;19961;-53
2022/03/26 07:22:49;;;;;;;;;;;5.10;99.90;;;;;;4104314;28;19930;-54
2022/03/26 07:24:51;;;;;;;;;;;5.20;99.90;;;;;;4080255;29;19926;-53
2022/03/26 07:26:53;;;;;;;;;;;5.30;99.90;;;;;;4094282;29;19973;-53
2022/03/26 07:28:55;;;;;;;;;;;5.50;99.90;;;;;;4094347;29;19973;-54
2022/03/26 07:30:57;;;;;;;;;;;5.60;99.90;;;;;;4094508;29;20005;-53
2022/03/26 07:33:00;;;;;;;;;;;5.90;99.90;;;;;;4093018;29;19975;-53
2022/03/26 07:35:03;;;;;;;;;;;6.10;99.90;;;;;;4094518;29;19933;-53
2022/03/26 07:37:05;;;;;;;;;;;6.40;99.90;;;;;;4094666;29;19942;-53
2022/03/26 07:39:07;;;;;;;;;;;6.60;99.90;;;;;;4095201;29;20440;-53
2022/03/26 07:41:08;;;;;;;;;;;6.80;99.90;;;;;;4095365;29;20398;-54
2022/03/26 07:43:10;;;;;;;;;;;7.00;99.90;;;;;;4099755;28;19926;-54
2022/03/26 07:45:12;;;;;;;;;;;7.30;99.90;;;;;;4095674;28;19926;-54
2022/03/26 07:47:14;;;;;;;;;;;7.70;99.90;;;;;;4094541;28;20366;-53
2022/03/26 07:49:16;;;;;;;;;;;7.90;99.90;;;;;;4097284;29;19958;-53
2022/03/26 07:51:18;;;;;;;;;;;8.30;99.90;;;;;;4103698;28;19933;-54
2022/03/26 07:53:22;;;;;;;;;;;8.60;99.50;;;;;;4096863;28;19930;-54
2022/03/26 07:55:26;;;;;;;;;;;8.90;99.10;;;;;;4101822;28;19930;-54
2022/03/26 07:57:28;;;;;;;;;;;9.10;98.70;;;;;;4097380;28;20449;-52
2022/03/26 07:59:30;;;;;;;;;;;9.30;99.00;;;;;;4105017;28;19934;-52
2022/03/26 08:01:32;;;;;;;;;;;9.60;96.80;;;;;;4097967;29;19926;-53
2022/03/26 08:03:34;;;;;;;;;;;9.80;96.80;;;;;;4097038;29;19931;-53
2022/03/26 08:05:36;;;;;;;;;;;10.00;95.40;;;;;;4103092;28;20020;-54
2022/03/26 08:07:38;;;;;;;;;;;10.20;95.50;;;;;;4100021;28;19985;-54
2022/03/26 08:09:40;;;;;;;;;;;10.60;95.60;;;;;;4099757;28;19926;-52
2022/03/26 08:11:45;;;;;;;;;;;10.70;95.30;;;;;;4099867;28;20017;-54
2022/03/26 08:13:47;;;;;;;;;;;11.00;95.50;;;;;;4096608;29;19989;-53
2022/03/26 08:15:49;;;;;;;;;;;11.10;95.30;;;;;;4097062;29;20553;-54
2022/03/26 08:17:51;;;;;;;;;;;11.40;95.60;;;;;;4103159;28;19930;-53
2022/03/26 08:19:53;;;;;;;;;;;11.70;94.40;;;;;;4097161;29;20367;-53
2022/03/26 08:21:55;;;;;;;;;;;11.80;93.80;;;;;;4097161;29;20448;-53
2022/03/26 08:23:57;;;;;;;;;;;12.00;93.20;;;;;;4096715;29;19930;-54
2022/03/26 08:28:20;;;;;;;;;;;12.50;93.00;;;;;;4096751;29;20376;-54
2022/03/26 08:30:22;;;;;;;;;;;12.60;92.30;;;;;;4093226;28;20013;-54
2022/03/26 08:32:24;;;;;;;;;;;12.80;92.50;;;;;;4095818;29;20021;-53
2022/03/26 08:34:26;;;;;;;;;;;13.00;91.80;;;;;;4096850;28;19931;-54
2022/03/26 08:36:28;;;;;;;;;;;13.10;91.70;;;;;;4093550;28;19961;-53
2022/03/26 08:38:30;;;;;;;;;;;13.40;91.40;;;;;;4095604;28;20017;-54
2022/03/26 08:40:32;;;;;;;;;;;13.50;90.90;;;;;;4093628;29;20571;-54
2022/03/26 08:42:35;;;;;;;;;;;13.80;91.10;;;;;;4094585;29;19970;-55
2022/03/26 08:44:36;;;;;;;;;;;14.10;91.10;;;;;;4093330;28;19969;-54
2022/03/26 08:46:38;;;;;;;;;;;14.20;90.20;;;;;;4093866;29;19930;-55
2022/03/26 08:48:40;;;;;;;;;;;14.20;89.30;;;;;;4097207;28;19930;-54
2022/03/26 08:50:42;;;;;;;;;;;14.30;88.50;;;;;;4102676;28;19970;-54
2022/03/26 08:52:47;;;;;;;;;;;14.40;88.90;;;;;;4095604;29;19985;-54
2022/03/26 08:54:49;;;;;;;;;;;14.70;89.30;;;;;;4094592;29;20029;-53
2022/03/26 08:56:57;;;;;;;;;;;15.00;86.70;;;;;;4095772;29;20013;-55
2022/03/26 08:58:59;;;;;;;;;;;15.10;86.30;;;;;;4092991;28;20279;-53
2022/03/26 09:01:01;;;;;;;;;;;15.30;86.80;;;;;;4065515;29;20050;-54
2022/03/26 09:03:03;;;;;;;;;;;15.40;85.60;;;;;;4070809;29;19953;-54
2022/03/26 09:05:06;;;;;;;;;;;15.50;82.80;;;;;;4092910;29;20058;-52
2022/03/26 09:07:09;;;;;;;;;;;15.60;82.50;;;;;;4095218;28;19927;-54
2022/03/26 09:09:11;;;;;;;;;;;15.80;82.00;;;;;;4095083;29;19930;-51
2022/03/26 09:11:14;;;;;;;;;;;16.10;83.60;;;;;;4094768;29;19931;-54
2022/03/26 09:13:15;;;;;;;;;;;16.10;81.40;;;;;;4095171;28;20564;-54
2022/03/26 09:15:18;;;;;;;;;;;16.30;81.20;;;;;;4093680;28;19927;-56
2022/03/26 09:17:20;;;;;;;;;;;16.50;80.30;;;;;;4096011;28;20374;-55
2022/03/26 09:19:22;;;;;;;;;;;16.90;83.40;;;;;;4097223;28;19930;-55
2022/03/26 09:21:24;;;;;;;;;;;17.20;77.40;;;;;;4092959;28;19969;-55
2022/03/26 09:23:25;;;;;;;;;;;17.50;73.70;;;;;;4095064;29;20323;-56
2022/03/26 09:25:29;;;;;;;;;;;17.60;75.10;;;;;;4079418;29;20013;-54
2022/03/26 09:27:31;;;;;;;;;;;17.70;71.70;;;;;;4096864;28;20359;-54
2022/03/26 09:29:33;;;;;;;;;;;17.90;71.70;;;;;;4092156;29;19930;-55
2022/03/26 09:31:35;;;;;;;;;;;18.00;71.60;;;;;;4094405;29;19970;-55
2022/03/26 09:33:37;;;;;;;;;;;18.10;71.20;;;;;;4095569;29;19937;-53
2022/03/26 09:35:39;;;;;;;;;;;18.20;66.80;;;;;;4100231;28;20355;-52
2022/03/26 09:37:41;;;;;;;;;;;18.30;67.00;;;;;;4087455;29;20421;-53
2022/03/26 09:39:43;;;;;;;;;;;18.50;66.40;;;;;;4089847;29;20314;-52
2022/03/26 09:41:49;;;;;;;;;;;19.00;67.80;;;;;;4090878;29;19995;-51
2022/03/26 09:43:52;;;;;;;;;;;19.10;64.00;;;;;;4083030;28;19926;-51
2022/03/26 09:45:54;;;;;;;;;;;19.10;63.80;;;;;;4069156;29;20046;-52
2022/03/26 09:47:56;;;;;;;;;;;19.30;64.40;;;;;;4086190;29;19996;-52
2022/03/26 09:49:58;;;;;;;;;;;19.30;63.30;;;;;;4087667;28;19934;-52
2022/03/26 09:52:00;;;;;;;;;;;19.40;65.70;;;;;;4094086;29;19958;-53
2022/03/26 09:54:02;;;;;;;;;;;19.80;61.40;;;;;;4094576;29;20382;-52
2022/03/26 09:56:04;;;;;;;;;;;20.00;62.70;;;;;;4095714;29;19926;-53
2022/03/26 09:58:06;;;;;;;;;;;20.30;61.10;;;;;;4093691;29;20021;-53
2022/03/26 10:00:09;;;;;;;;;;;20.40;59.30;;;;;;4095425;29;20469;-52
2022/03/26 10:02:12;;;;;;;;;;;20.40;59.40;;;;;;4094423;29;19926;-53
2022/03/26 10:04:13;;;;;;;;;;;20.60;58.20;;;;;;4095719;29;19930;-52
2022/03/26 10:06:23;;;;;;;;;;;21.00;59.30;;;;;;4094761;28;19935;-52
2022/03/26 10:08:25;;;;;;;;;;;21.10;58.20;;;;;;4091812;28;19970;-52
2022/03/26 10:10:27;;;;;;;;;;;20.90;53.90;;;;;;4093357;28;20029;-51
2022/03/26 10:12:29;;;;;;;;;;;21.00;55.50;;;;;;4093756;29;19930;-53
2022/03/26 10:14:49;;;;;;;;;;;21.30;50.70;;;;;;4093289;28;19973;-53
2022/03/26 10:16:54;;;;;;;;;;;21.10;53.50;;;;;;4090572;28;19934;-54
2022/03/26 10:18:57;;;;;;;;;;;20.90;49.60;;;;;;4096959;28;20389;-54
2022/03/26 10:20:59;;;;;;;;;;;21.20;53.20;;;;;;4094131;29;19996;-54
2022/03/26 10:23:01;;;;;;;;;;;21.30;51.90;;;;;;4093972;29;19966;-54
2022/03/26 10:25:16;;;;;;;;;;;21.00;52.50;;;;;;4095595;29;19974;-53
2022/03/26 10:27:18;;;;;;;;;;;20.50;48.80;;;;;;4092489;29;19985;-53
2022/03/26 10:29:20;;;;;;;;;;;20.60;52.90;;;;;;4093628;29;20446;-54
2022/03/26 10:33:47;;;;;;;;;;;21.00;49.30;;;;;;4093493;29;19930;-52
2022/03/26 10:35:56;;;;;;;;;;;20.70;46.90;;;;;;4092591;29;19937;-53
2022/03/26 10:38:00;;;;;;;;;;;21.00;49.30;;;;;;4094979;29;20382;-54
2022/03/26 10:40:18;;;;;;;;;;;20.90;50.30;;;;;;4094483;29;19977;-54
2022/03/26 10:42:28;;;;;;;;;;;21.10;49.30;;;;;;4092587;28;20398;-53
2022/03/26 10:44:30;;;;;;;;;;;21.10;48.00;;;;;;4096613;28;19927;-53
2022/03/26 10:46:40;;;;;;;;;;;21.20;47.40;;;;;;4093498;29;19972;-54
2022/03/26 10:48:43;;;;;;;;;;;21.40;49.20;;;;;;4093619;29;19969;-53
2022/03/26 10:50:45;;;;;;;;;;;21.40;48.80;;;;;;4100800;28;20056;-51
2022/03/26 10:52:47;;;;;;;;;;;21.20;47.10;;;;;;4092204;29;19931;-53
2022/03/26 10:54:49;;;;;;;;;;;21.20;49.50;;;;;;4091300;29;20017;-55
2022/03/26 10:56:52;;;;;;;;;;;21.70;51.50;;;;;;4091647;29;20383;-52
2022/03/26 10:58:54;;;;;;;;;;;22.40;52.20;;;;;;4095768;29;19949;-54
2022/03/26 11:00:56;;;;;;;;;;;22.50;48.10;;;;;;4094574;29;20021;-54
2022/03/26 11:02:58;;;;;;;;;;;22.50;46.90;;;;;;4090076;29;20400;-54
2022/03/26 11:05:00;;;;;;;;;;;22.40;47.60;;;;;;4095217;28;19931;-55
2022/03/26 11:07:02;;;;;;;;;;;22.20;46.90;;;;;;4093661;29;19945;-52
2022/03/26 11:09:04;;;;;;;;;;;22.10;48.50;;;;;;4094233;28;19945;-54
2022/03/26 11:11:07;;;;;;;;;;;22.20;47.50;;;;;;4093267;29;19937;-53
2022/03/26 11:13:11;;;;;;;;;;;21.90;46.40;;;;;;4090029;29;19969;-54
2022/03/26 11:15:16;;;;;;;;;;;21.40;44.30;;;;;;4091441;29;19930;-54
2022/03/26 11:17:36;;;;;;;;;;;21.30;45.50;;;;;;4091393;28;20421;-54
2022/03/26 11:19:41;;;;;;;;;;;21.10;44.80;;;;;;4095364;29;19961;-53
2022/03/26 11:21:56;;;;;;;;;;;21.00;45.50;;;;;;4092270;28;19934;-54
2022/03/26 11:24:07;;;;;;;;;;;21.10;44.60;;;;;;4094905;29;19930;-54
2022/03/26 11:26:22;;;;;;;;;;;21.50;45.30;;;;;;4097131;29;19996;-53
2022/03/26 11:28:24;;;;;;;;;;;21.60;43.80;;;;;;4099606;28;19981;-54
2022/03/26 11:30:45;;;;;;;;;;;21.70;44.80;;;;;;4095119;29;19934;-53
2022/03/26 11:32:49;;;;;;;;;;;21.20;44.60;;;;;;4095434;29;19931;-53
2022/03/26 11:35:01;;;;;;;;;;;20.80;44.40;;;;;;4093935;29;19978;-54
2022/03/26 11:37:13;;;;;;;;;;;21.30;46.80;;;;;;4093601;29;19930;-54
2022/03/26 11:39:19;;;;;;;;;;;21.70;43.00;;;;;;4090501;29;19937;-54
2022/03/26 11:41:32;;;;;;;;;;;21.70;44.30;;;;;;4095758;29;19934;-54
2022/03/26 11:43:43;;;;;;;;;;;22.40;47.90;;;;;;4095855;28;19937;-54
2022/03/26 11:50:42;;;;;;;;;;;22.20;42.40;;;;;;4095578;28;19982;-54
2022/03/26 11:52:44;;;;;;;;;;;22.60;41.30;;;;;;4089791;28;20025;-54
2022/03/26 11:54:47;;;;;;;;;;;22.90;46.30;;;;;;4093013;28;19934;-53
2022/03/26 11:57:08;;;;;;;;;;;23.40;43.10;;;;;;4097761;28;20374;-53
2022/03/26 11:59:16;;;;;;;;;;;23.10;40.80;;;;;;4096503;29;20244;-53
2022/03/26 12:01:20;;;;;;;;;;;22.60;43.40;;;;;;4097078;29;19930;-53
2022/03/26 12:03:25;;;;;;;;;;;22.10;44.50;;;;;;4087260;28;19926;-53
2022/03/26 12:07:48;;;;;;;;;;;22.60;43.50;;;;;;4099467;28;19930;-53
2022/03/26 12:10:03;;;;;;;;;;;23.00;45.50;;;;;;4094081;29;19931;-54
2022/03/26 12:12:05;;;;;;;;;;;23.60;43.00;;;;;;4087539;29;19958;-55
2022/03/26 12:14:08;;;;;;;;;;;23.00;41.40;;;;;;4094746;29;20291;-54